Time;durP1;ratioP1;P1;durP2;ratioP2;P2;SDS_P1;SDS_P2;PMS_P1;PMS_P2;Temp;Humidity;BMP_temperature;BMP_pressure;BME280_temperature;BME280_humidity;BME280_pressure;Samples;Min_cycle;Max_cycle;Signal;HPM_P1;HPM_P2
2023/03/04 00:03:21;;;;;;;;;;;;;;;;;;10458084;28;19916;-70
2023/03/04 00:08:41;;;;;;;;;;;;;;;;;;10464117;28;19924;-71
2023/03/04 00:14:02;;;;;;;;;;;;;;;;;;10463968;28;19955;-72
2023/03/04 00:19:23;;;;;;;;;;;;;;;;;;10453797;28;19916;-71
2023/03/04 00:24:43;;;;;;;;;;;;;;;;;;10465540;28;19912;-72
2023/03/04 00:30:04;;;;;;;;;;;;;;;;;;10451823;28;19916;-70
2023/03/04 00:35:25;;;;;;;;;;;;;;;;;;10453645;28;19920;-69
2023/03/04 00:40:46;;;;;;;;;;;;;;;;;;10429572;28;20388;-69
2023/03/04 00:46:06;;;;;;;;;;;;;;;;;;10447563;28;19924;-70
2023/03/04 00:51:27;;;;;;;;;;;;;;;;;;10442375;28;20314;-71
2023/03/04 00:56:48;;;;;;;;;;;;;;;;;;10423052;28;19923;-70
2023/03/04 01:02:08;;;;;;;;;;;;;;;;;;10457730;28;19917;-72
2023/03/04 01:07:29;;;;;;;;;;;;;;;;;;10462463;28;20283;-70
2023/03/04 01:12:50;;;;;;;;;;;;;;;;;;10464974;28;19924;-70
2023/03/04 01:18:11;;;;;;;;;;;;;;;;;;10463305;28;20420;-72
2023/03/04 01:23:31;;;;;;;;;;;;;;;;;;10455169;28;19920;-71
2023/03/04 01:28:52;;;;;;;;;;;;;;;;;;10454368;28;19916;-70
2023/03/04 01:34:13;;;;;;;;;;;;;;;;;;10451804;28;20325;-71
2023/03/04 01:39:33;;;;;;;;;;;;;;;;;;10450861;28;20355;-70
2023/03/04 01:44:54;;;;;;;;;;;;;;;;;;10466229;28;19919;-70
2023/03/04 01:50:15;;;;;;;;;;;;;;;;;;10463250;28;19921;-71
2023/03/04 01:55:35;;;;;;;;;;;;;;;;;;10444992;28;20383;-71
2023/03/04 02:00:56;;;;;;;;;;;;;;;;;;10456639;28;19920;-79
2023/03/04 02:06:17;;;;;;;;;;;;;;;;;;10471244;28;19912;-78
2023/03/04 02:11:37;;;;;;;;;;;;;;;;;;10464716;28;22011;-78
2023/03/04 02:16:58;;;;;;;;;;;;;;;;;;10462415;28;19913;-79
2023/03/04 02:22:19;;;;;;;;;;;;;;;;;;10467506;28;19916;-79
2023/03/04 02:27:39;;;;;;;;;;;;;;;;;;10469364;28;19920;-79
2023/03/04 02:33:00;;;;;;;;;;;;;;;;;;10469588;28;19916;-79
2023/03/04 02:38:21;;;;;;;;;;;;;;;;;;10470727;28;19927;-79
2023/03/04 02:43:42;;;;;;;;;;;;;;;;;;10463567;28;19920;-79
2023/03/04 02:49:02;;;;;;;;;;;;;;;;;;10469816;28;19956;-79
2023/03/04 02:54:23;;;;;;;;;;;;;;;;;;10465187;28;19948;-79
2023/03/04 02:59:44;;;;;;;;;;;;;;;;;;10453101;28;19909;-79
2023/03/04 03:05:04;;;;;;;;;;;;;;;;;;10460871;28;20272;-79
2023/03/04 03:10:25;;;;;;;;;;;;;;;;;;10460579;28;19917;-69
2023/03/04 03:15:46;;;;;;;;;;;;;;;;;;10460177;28;19917;-71
2023/03/04 03:21:06;;;;;;;;;;;;;;;;;;10456804;28;19921;-70
2023/03/04 03:26:27;;;;;;;;;;;;;;;;;;10458608;28;19921;-79
2023/03/04 03:31:48;;;;;;;;;;;;;;;;;;10470001;28;19916;-79
2023/03/04 03:37:08;;;;;;;;;;;;;;;;;;10475616;28;19916;-78
2023/03/04 03:42:29;;;;;;;;;;;;;;;;;;10468401;28;19912;-79
2023/03/04 03:47:50;;;;;;;;;;;;;;;;;;10461810;28;20362;-78
2023/03/04 03:53:10;;;;;;;;;;;;;;;;;;10468390;28;19933;-78
2023/03/04 03:58:31;;;;;;;;;;;;;;;;;;10464839;28;19920;-78
2023/03/04 04:03:52;;;;;;;;;;;;;;;;;;10471194;28;20287;-79
2023/03/04 04:09:12;;;;;;;;;;;;;;;;;;10470758;28;19916;-79
2023/03/04 04:14:33;;;;;;;;;;;;;;;;;;10468425;28;19920;-79
2023/03/04 04:19:54;;;;;;;;;;;;;;;;;;10468329;28;19920;-78
2023/03/04 04:25:14;;;;;;;;;;;;;;;;;;10467881;28;19922;-79
2023/03/04 04:30:35;;;;;;;;;;;;;;;;;;10467823;28;19916;-79
2023/03/04 04:35:56;;;;;;;;;;;;;;;;;;10463448;28;20387;-79
2023/03/04 04:41:17;;;;;;;;;;;;;;;;;;10466609;28;20279;-79
2023/03/04 04:46:37;;;;;;;;;;;;;;;;;;10464128;28;19920;-79
2023/03/04 04:51:58;;;;;;;;;;;;;;;;;;10466506;28;20430;-79
2023/03/04 04:57:19;;;;;;;;;;;;;;;;;;10455888;28;19912;-79
2023/03/04 05:02:39;;;;;;;;;;;;;;;;;;10437935;28;20291;-79
2023/03/04 05:08:00;;;;;;;;;;;;;;;;;;10444220;28;19909;-79
2023/03/04 05:13:21;;;;;;;;;;;;;;;;;;10470512;28;19916;-79
2023/03/04 05:18:41;;;;;;;;;;;;;;;;;;10496944;28;19920;-79
2023/03/04 05:24:02;;;;;;;;;;;;;;;;;;10475565;28;19923;-79
2023/03/04 05:29:23;;;;;;;;;;;;;;;;;;10468808;28;19916;-78
2023/03/04 05:34:43;;;;;;;;;;;;;;;;;;10469548;28;19916;-79
2023/03/04 05:40:04;;;;;;;;;;;;;;;;;;10468295;28;19912;-79
2023/03/04 05:45:25;;;;;;;;;;;;;;;;;;10461162;28;19971;-79
2023/03/04 05:50:46;;;;;;;;;;;;;;;;;;10469214;28;19920;-79
2023/03/04 05:56:07;;;;;;;;;;;;;;;;;;10462240;28;20371;-79
2023/03/04 06:01:27;;;;;;;;;;;;;;;;;;10457310;28;19923;-79
2023/03/04 06:06:48;;;;;;;;;;;;;;;;;;10465442;28;19928;-79
2023/03/04 06:12:09;;;;;;;;;;;;;;;;;;10474696;28;19935;-79
2023/03/04 06:17:29;;;;;;;;;;;;;;;;;;10474808;28;19913;-78
2023/03/04 06:22:50;;;;;;;;;;;;;;;;;;10472214;28;19916;-79
2023/03/04 06:28:11;;;;;;;;;;;;;;;;;;10454133;28;19917;-69
2023/03/04 06:33:31;;;;;;;;;;;;;;;;;;10469531;28;20347;-69
2023/03/04 06:38:52;;;;;;;;;;;;;;;;;;10456809;28;19931;-70
2023/03/04 06:44:13;;;;;;;;;;;;;;;;;;10457093;28;20390;-70
2023/03/04 06:49:34;;;;;;;;;;;;;;;;;;10464636;28;20504;-69
2023/03/04 06:54:54;;;;;;;;;;;;;;;;;;10440905;28;20157;-70
2023/03/04 07:00:15;;;;;;;;;;;;;;;;;;10451918;28;19909;-70
2023/03/04 07:05:36;;;;;;;;;;;;;;;;;;10455337;28;19917;-70
2023/03/04 07:10:56;;;;;;;;;;;;;;;;;;10464536;28;19916;-70
2023/03/04 07:16:17;;;;;;;;;;;;;;;;;;10482094;28;20287;-70
2023/03/04 07:21:38;;;;;;;;;;;;;;;;;;10454196;28;20380;-70
2023/03/04 07:26:58;;;;;;;;;;;;;;;;;;10465487;28;19917;-70
2023/03/04 07:32:19;;;;;;;;;;;;;;;;;;10461172;28;19928;-70
2023/03/04 07:37:40;;;;;;;;;;;;;;;;;;10456030;28;20321;-70
2023/03/04 07:43:01;;;;;;;;;;;;;;;;;;10467320;28;19919;-71
2023/03/04 07:48:22;;;;;;;;;;;;;;;;;;10463363;28;20005;-71
2023/03/04 07:53:43;;;;;;;;;;;;;;;;;;10451525;28;19948;-69
2023/03/04 07:59:03;;;;;;;;;;;;;;;;;;10465859;28;19917;-70
2023/03/04 08:04:24;;;;;;;;;;;;;;;;;;10458666;28;19928;-69
2023/03/04 08:09:45;;;;;;;;;;;;;;;;;;10457393;28;19959;-69
2023/03/04 08:15:05;;;;;;;;;;;;;;;;;;10460132;28;20737;-70
2023/03/04 08:20:26;;;;;;;;;;;;;;;;;;10458441;28;21368;-70
2023/03/04 08:25:47;;;;;;;;;;;;;;;;;;10464188;28;19916;-70
2023/03/04 08:31:07;;;;;;;;;;;;;;;;;;10461319;28;19920;-70
2023/03/04 08:36:28;;;;;;;;;;;;;;;;;;10464526;28;19917;-71
2023/03/04 08:41:49;;;;;;;;;;;;;;;;;;10450795;28;19910;-71
2023/03/04 08:47:10;;;;;;;;;;;;;;;;;;10453214;28;19924;-70
2023/03/04 08:52:31;;;;;;;;;;;;;;;;;;10450400;28;19964;-71
2023/03/04 08:57:51;;;;;;;;;;;;;;;;;;10437580;28;20437;-70
2023/03/04 09:03:12;;;;;;;;;;;;;;;;;;10458430;28;19920;-78
2023/03/04 09:08:33;;;;;;;;;;;;;;;;;;10462593;28;19923;-77
2023/03/04 09:13:54;;;;;;;;;;;;;;;;;;10472321;28;20375;-76
2023/03/04 09:19:14;;;;;;;;;;;;;;;;;;10461060;28;19921;-76
2023/03/04 09:24:35;;;;;;;;;;;;;;;;;;10449832;28;19914;-76
2023/03/04 09:29:56;;;;;;;;;;;;;;;;;;10452742;28;19920;-77
2023/03/04 09:35:16;;;;;;;;;;;;;;;;;;10463080;28;19917;-77
2023/03/04 09:40:37;;;;;;;;;;;;;;;;;;10446602;28;19916;-77
2023/03/04 09:45:58;;;;;;;;;;;;;;;;;;10454014;28;20375;-77
2023/03/04 09:51:19;;;;;;;;;;;;;;;;;;10449969;28;19925;-77
2023/03/04 09:56:41;;;;;;;;;;;;;;;;;;10439297;28;21913;-77
2023/03/04 10:02:02;;;;;;;;;;;;;;;;;;10465317;28;20192;-78
2023/03/04 10:07:22;;;;;;;;;;;;;;;;;;10457734;28;20025;-77
2023/03/04 10:12:43;;;;;;;;;;;;;;;;;;10441385;28;19921;-76
2023/03/04 10:18:04;;;;;;;;;;;;;;;;;;10429886;28;20192;-77
2023/03/04 10:23:24;;;;;;;;;;;;;;;;;;10449527;28;19916;-77
2023/03/04 10:28:45;;;;;;;;;;;;;;;;;;10456118;28;19921;-77
2023/03/04 10:34:06;;;;;;;;;;;;;;;;;;10447493;28;19921;-77
2023/03/04 10:39:27;;;;;;;;;;;;;;;;;;10464768;28;20679;-77
2023/03/04 10:44:48;;;;;;;;;;;;;;;;;;10447902;28;19921;-78
2023/03/04 10:50:09;;;;;;;;;;;;;;;;;;10456244;28;19920;-78
2023/03/04 10:55:29;;;;;;;;;;;;;;;;;;10437305;28;19948;-79
2023/03/04 11:00:50;;;;;;;;;;;;;;;;;;10447303;28;20405;-79
2023/03/04 11:06:12;;;;;;;;;;;;;;;;;;10459174;28;19912;-80
2023/03/04 11:11:33;;;;;;;;;;;;;;;;;;10471703;28;19924;-80
2023/03/04 11:16:54;;;;;;;;;;;;;;;;;;10470508;28;19924;-78
2023/03/04 11:22:15;;;;;;;;;;;;;;;;;;10458524;28;19909;-80
2023/03/04 11:27:36;;;;;;;;;;;;;;;;;;10455733;28;19915;-81
2023/03/04 11:32:56;;;;;;;;;;;;;;;;;;10457175;28;19925;-80
2023/03/04 11:38:17;;;;;;;;;;;;;;;;;;10455782;28;19908;-81
2023/03/04 11:43:38;;;;;;;;;;;;;;;;;;10474546;28;19909;-80
2023/03/04 11:48:58;;;;;;;;;;;;;;;;;;10488763;28;19924;-81
2023/03/04 11:54:19;;;;;;;;;;;;;;;;;;10449255;28;19917;-80
2023/03/04 11:59:40;;;;;;;;;;;;;;;;;;10419698;28;20257;-81
2023/03/04 12:05:00;;;;;;;;;;;;;;;;;;10422049;28;19916;-81
2023/03/04 12:10:21;;;;;;;;;;;;;;;;;;10462633;28;19918;-81
2023/03/04 12:15:42;;;;;;;;;;;;;;;;;;10494919;28;19924;-81
2023/03/04 12:21:03;;;;;;;;;;;;;;;;;;10495851;28;19924;-81
2023/03/04 12:26:23;;;;;;;;;;;;;;;;;;10495416;28;19916;-80
2023/03/04 12:31:44;;;;;;;;;;;;;;;;;;10453548;28;20344;-80
2023/03/04 12:37:06;;;;;;;;;;;;;;;;;;10457915;28;19912;-79
2023/03/04 12:42:27;;;;;;;;;;;;;;;;;;10454952;28;20430;-79
2023/03/04 12:47:48;;;;;;;;;;;;;;;;;;10478561;28;19917;-78
2023/03/04 12:53:09;;;;;;;;;;;;;;;;;;10458418;28;19920;-79
2023/03/04 12:58:29;;;;;;;;;;;;;;;;;;10457378;28;19908;-78
2023/03/04 13:03:50;;;;;;;;;;;;;;;;;;10456684;28;20371;-78
2023/03/04 13:09:11;;;;;;;;;;;;;;;;;;10456443;28;19913;-78
2023/03/04 13:14:32;;;;;;;;;;;;;;;;;;10470045;28;19920;-80
2023/03/04 13:19:52;;;;;;;;;;;;;;;;;;10497275;28;19912;-79
2023/03/04 13:25:13;;;;;;;;;;;;;;;;;;10435846;28;19924;-79
2023/03/04 13:30:34;;;;;;;;;;;;;;;;;;10453196;28;19920;-78
2023/03/04 13:35:56;;;;;;;;;;;;;;;;;;10454136;28;19913;-78
2023/03/04 13:41:17;;;;;;;;;;;;;;;;;;10445131;28;19912;-77
2023/03/04 13:46:38;;;;;;;;;;;;;;;;;;10443112;28;19921;-78
2023/03/04 13:51:58;;;;;;;;;;;;;;;;;;10448158;28;19924;-78
2023/03/04 13:57:19;;;;;;;;;;;;;;;;;;10447684;28;19917;-79
2023/03/04 14:02:40;;;;;;;;;;;;;;;;;;10444701;28;19917;-78
2023/03/04 14:08:00;;;;;;;;;;;;;;;;;;10441644;28;19920;-79
2023/03/04 14:13:21;;;;;;;;;;;;;;;;;;10455665;28;19920;-79
2023/03/04 14:18:42;;;;;;;;;;;;;;;;;;10451074;28;19916;-80
2023/03/04 14:24:03;;;;;;;;;;;;;;;;;;10459256;28;20162;-80
2023/03/04 14:29:23;;;;;;;;;;;;;;;;;;10465969;28;19928;-80
2023/03/04 14:34:44;;;;;;;;;;;;;;;;;;10481917;28;19920;-80
2023/03/04 14:40:05;;;;;;;;;;;;;;;;;;10470835;28;20387;-81
2023/03/04 14:45:25;;;;;;;;;;;;;;;;;;10471791;28;20373;-80
2023/03/04 14:50:46;;;;;;;;;;;;;;;;;;10471811;28;20314;-80
2023/03/04 14:56:07;;;;;;;;;;;;;;;;;;10478016;28;19916;-79
2023/03/04 15:01:27;;;;;;;;;;;;;;;;;;10462439;28;19920;-79
2023/03/04 15:06:48;;;;;;;;;;;;;;;;;;10468655;28;19921;-80
2023/03/04 15:12:09;;;;;;;;;;;;;;;;;;10453275;28;19920;-80
2023/03/04 15:17:31;;;;;;;;;;;;;;;;;;10467827;28;19917;-80
2023/03/04 15:22:52;;;;;;;;;;;;;;;;;;10465485;28;20378;-80
2023/03/04 15:28:13;;;;;;;;;;;;;;;;;;10456187;28;19920;-80
2023/03/04 15:33:34;;;;;;;;;;;;;;;;;;10461197;28;19925;-81
2023/03/04 15:38:54;;;;;;;;;;;;;;;;;;10460780;28;20285;-81
2023/03/04 15:44:15;;;;;;;;;;;;;;;;;;10458787;28;19913;-80
2023/03/04 15:49:36;;;;;;;;;;;;;;;;;;10472132;28;19921;-80
2023/03/04 15:54:56;;;;;;;;;;;;;;;;;;10447458;28;19928;-80
2023/03/04 16:00:17;;;;;;;;;;;;;;;;;;10451724;28;19920;-80
2023/03/04 16:05:38;;;;;;;;;;;;;;;;;;10469424;28;19921;-80
2023/03/04 16:10:58;;;;;;;;;;;;;;;;;;10452315;28;19927;-80
2023/03/04 16:16:19;;;;;;;;;;;;;;;;;;10451284;28;20327;-80
2023/03/04 16:21:40;;;;;;;;;;;;;;;;;;10461135;28;19924;-79
2023/03/04 16:27:01;;;;;;;;;;;;;;;;;;10477833;28;19924;-80
2023/03/04 16:32:23;;;;;;;;;;;;;;;;;;10465113;28;19917;-79
2023/03/04 16:37:44;;;;;;;;;;;;;;;;;;10461372;28;19921;-79
2023/03/04 16:43:04;;;;;;;;;;;;;;;;;;10451596;28;19917;-79
2023/03/04 16:48:25;;;;;;;;;;;;;;;;;;10485139;28;19920;-80
2023/03/04 16:53:46;;;;;;;;;;;;;;;;;;10475772;28;19932;-80
2023/03/04 16:59:06;;;;;;;;;;;;;;;;;;10460425;28;19913;-79
2023/03/04 17:04:27;;;;;;;;;;;;;;;;;;10465708;28;19924;-80
2023/03/04 17:09:49;;;;;;;;;;;;;;;;;;10461637;28;19913;-80
2023/03/04 17:15:10;;;;;;;;;;;;;;;;;;10474642;28;19912;-80
2023/03/04 17:20:30;;;;;;;;;;;;;;;;;;10493846;28;20276;-80
2023/03/04 17:25:51;;;;;;;;;;;;;;;;;;10492003;28;19905;-80
2023/03/04 17:31:12;;;;;;;;;;;;;;;;;;10452461;28;19912;-80
2023/03/04 17:36:32;;;;;;;;;;;;;;;;;;10452702;28;19916;-80
2023/03/04 17:41:53;;;;;;;;;;;;;;;;;;10451318;28;19909;-79
2023/03/04 17:47:14;;;;;;;;;;;;;;;;;;10444427;28;19920;-80
2023/03/04 17:52:35;;;;;;;;;;;;;;;;;;10451787;28;19974;-79
2023/03/04 17:57:57;;;;;;;;;;;;;;;;;;10450410;28;19921;-80
2023/03/04 18:03:17;;;;;;;;;;;;;;;;;;10449598;28;19957;-80
2023/03/04 18:08:38;;;;;;;;;;;;;;;;;;10451259;28;19912;-80
2023/03/04 18:13:59;;;;;;;;;;;;;;;;;;10464205;28;19924;-80
2023/03/04 18:19:19;;;;;;;;;;;;;;;;;;10492085;28;19909;-81
2023/03/04 18:24:40;;;;;;;;;;;;;;;;;;10492096;28;20409;-80
2023/03/04 18:30:01;;;;;;;;;;;;;;;;;;10471018;28;20297;-80
2023/03/04 18:35:22;;;;;;;;;;;;;;;;;;10449501;28;19921;-80
2023/03/04 18:40:43;;;;;;;;;;;;;;;;;;10444221;28;19917;-80
2023/03/04 18:46:04;;;;;;;;;;;;;;;;;;10466503;28;20180;-80
2023/03/04 18:51:24;;;;;;;;;;;;;;;;;;10464075;28;19932;-80
2023/03/04 18:56:45;;;;;;;;;;;;;;;;;;10449948;28;20018;-80
2023/03/04 19:02:06;;;;;;;;;;;;;;;;;;10451639;28;20364;-80
2023/03/04 19:07:26;;;;;;;;;;;;;;;;;;10459403;28;19917;-80
2023/03/04 19:12:47;;;;;;;;;;;;;;;;;;10460857;28;20279;-80
2023/03/04 19:18:08;;;;;;;;;;;;;;;;;;10457625;28;19912;-81
2023/03/04 19:23:28;;;;;;;;;;;;;;;;;;10456959;28;19913;-80
2023/03/04 19:28:49;;;;;;;;;;;;;;;;;;10455281;28;20442;-81
2023/03/04 19:34:10;;;;;;;;;;;;;;;;;;10456738;28;19917;-81
2023/03/04 19:39:30;;;;;;;;;;;;;;;;;;10467786;28;19912;-80
2023/03/04 19:44:51;;;;;;;;;;;;;;;;;;10453494;28;20364;-81
2023/03/04 19:50:12;;;;;;;;;;;;;;;;;;10446958;28;19921;-81
2023/03/04 19:55:33;;;;;;;;;;;;;;;;;;10456012;28;19912;-81
2023/03/04 20:00:55;;;;;;;;;;;;;;;;;;10413506;28;19920;-81
2023/03/04 20:06:15;;;;;;;;;;;;;;;;;;10427517;28;19920;-80
2023/03/04 20:11:36;;;;;;;;;;;;;;;;;;10433399;28;19921;-81
2023/03/04 20:16:59;;;;;;;;;;;;;;;;;;10455144;28;19909;-81
2023/03/04 20:22:20;;;;;;;;;;;;;;;;;;10453847;28;19917;-80
2023/03/04 20:27:40;;;;;;;;;;;;;;;;;;10454765;28;19909;-81
2023/03/04 20:33:01;;;;;;;;;;;;;;;;;;10454339;28;19927;-80
2023/03/04 20:38:22;;;;;;;;;;;;;;;;;;10461185;28;20322;-80
2023/03/04 20:43:43;;;;;;;;;;;;;;;;;;10444922;28;19913;-80
2023/03/04 20:49:03;;;;;;;;;;;;;;;;;;10447369;28;19940;-80
2023/03/04 20:54:24;;;;;;;;;;;;;;;;;;10442477;28;19932;-80
2023/03/04 20:59:45;;;;;;;;;;;;;;;;;;10451352;28;19924;-80
2023/03/04 21:05:05;;;;;;;;;;;;;;;;;;10454528;28;20360;-80
2023/03/04 21:10:26;;;;;;;;;;;;;;;;;;10473114;28;19913;-80
2023/03/04 21:15:47;;;;;;;;;;;;;;;;;;10451248;28;20272;-80
2023/03/04 21:21:07;;;;;;;;;;;;;;;;;;10453099;28;19909;-80
2023/03/04 21:26:28;;;;;;;;;;;;;;;;;;10447618;28;19924;-76
2023/03/04 21:31:49;;;;;;;;;;;;;;;;;;10457281;28;19932;-76
2023/03/04 21:37:09;;;;;;;;;;;;;;;;;;10461508;28;19936;-76
2023/03/04 21:42:30;;;;;;;;;;;;;;;;;;10446683;28;19917;-76
2023/03/04 21:47:51;;;;;;;;;;;;;;;;;;10456661;28;19920;-76
2023/03/04 21:53:11;;;;;;;;;;;;;;;;;;10459226;28;19928;-76
2023/03/04 21:58:34;;;;;;;;;;;;;;;;;;10475800;28;19974;-76
2023/03/04 22:03:54;;;;;;;;;;;;;;;;;;10475903;28;19920;-76
2023/03/04 22:09:15;;;;;;;;;;;;;;;;;;10479347;28;20390;-76
2023/03/04 22:14:36;;;;;;;;;;;;;;;;;;10459806;28;19916;-76
2023/03/04 22:19:56;;;;;;;;;;;;;;;;;;10448515;28;19912;-76
2023/03/04 22:25:17;;;;;;;;;;;;;;;;;;10446793;28;19956;-76
2023/03/04 22:30:38;;;;;;;;;;;;;;;;;;10451371;28;19999;-76
2023/03/04 22:35:58;;;;;;;;;;;;;;;;;;10465259;28;19916;-75
2023/03/04 22:41:19;;;;;;;;;;;;;;;;;;10447011;28;20375;-75
2023/03/04 22:46:40;;;;;;;;;;;;;;;;;;10456486;28;20246;-76
2023/03/04 22:52:01;;;;;;;;;;;;;;;;;;10456547;28;19947;-76
2023/03/04 22:57:21;;;;;;;;;;;;;;;;;;10451150;28;20394;-76
2023/03/04 23:02:42;;;;;;;;;;;;;;;;;;10472043;28;19917;-76
2023/03/04 23:08:03;;;;;;;;;;;;;;;;;;10474558;28;20354;-76
2023/03/04 23:13:23;;;;;;;;;;;;;;;;;;10471344;28;19921;-76
2023/03/04 23:18:47;;;;;;;;;;;;;;;;;;10457831;28;19924;-76
2023/03/04 23:24:08;;;;;;;;;;;;;;;;;;10456089;28;19912;-76
2023/03/04 23:29:29;;;;;;;;;;;;;;;;;;10465653;28;19920;-76
2023/03/04 23:34:52;;;;;;;;;;;;;;;;;;10465326;28;19924;-76
2023/03/04 23:40:12;;;;;;;;;;;;;;;;;;10467701;28;19960;-76
2023/03/04 23:45:33;;;;;;;;;;;;;;;;;;10461697;28;19920;-77
2023/03/04 23:50:54;;;;;;;;;;;;;;;;;;10476696;28;20202;-75
2023/03/04 23:56:14;;;;;;;;;;;;;;;;;;10464557;28;19932;-76
